sensor_id;sensor_type;location;lat;lon;timestamp;temperature;humidity
26954;DHT22;14508;50.924;11.600;2023-10-19T00:00:56;9.00;99.90
26954;DHT22;14508;50.924;11.600;2023-10-19T00:03:24;9.10;99.90
26954;DHT22;14508;50.924;11.600;2023-10-19T00:05:56;9.10;99.90
26954;DHT22;14508;50.924;11.600;2023-10-19T00:08:25;9.20;99.90
26954;DHT22;14508;50.924;11.600;2023-10-19T00:11:03;9.20;99.90
26954;DHT22;14508;50.924;11.600;2023-10-19T00:13:35;9.20;99.90
26954;DHT22;14508;50.924;11.600;2023-10-19T00:16:05;9.20;99.90
26954;DHT22;14508;50.924;11.600;2023-10-19T00:18:38;9.20;99.90
26954;DHT22;14508;50.924;11.600;2023-10-19T00:21:10;9.30;99.90
26954;DHT22;14508;50.924;11.600;2023-10-19T00:23:49;9.30;99.90
26954;DHT22;14508;50.924;11.600;2023-10-19T00:26:18;9.30;99.90
26954;DHT22;14508;50.924;11.600;2023-10-19T00:28:58;9.30;99.90
26954;DHT22;14508;50.924;11.600;2023-10-19T00:31:32;9.40;99.90
26954;DHT22;14508;50.924;11.600;2023-10-19T00:34:04;9.30;99.90
26954;DHT22;14508;50.924;11.600;2023-10-19T00:36:33;9.30;99.90
26954;DHT22;14508;50.924;11.600;2023-10-19T00:39:06;9.20;99.90
26954;DHT22;14508;50.924;11.600;2023-10-19T00:41:41;9.20;99.90
26954;DHT22;14508;50.924;11.600;2023-10-19T00:44:10;9.10;99.90
26954;DHT22;14508;50.924;11.600;2023-10-19T00:46:39;9.00;99.90
26954;DHT22;14508;50.924;11.600;2023-10-19T00:49:12;9.00;99.90
26954;DHT22;14508;50.924;11.600;2023-10-19T00:51:44;9.00;99.90
26954;DHT22;14508;50.924;11.600;2023-10-19T00:54:26;9.00;99.90
26954;DHT22;14508;50.924;11.600;2023-10-19T00:57:00;9.00;99.90
26954;DHT22;14508;50.924;11.600;2023-10-19T00:59:31;8.90;99.90
26954;DHT22;14508;50.924;11.600;2023-10-19T01:02:06;8.90;99.90
26954;DHT22;14508;50.924;11.600;2023-10-19T01:04:48;9.00;99.90
26954;DHT22;14508;50.924;11.600;2023-10-19T01:07:24;9.00;99.90
26954;DHT22;14508;50.924;11.600;2023-10-19T01:09:58;9.00;99.90
26954;DHT22;14508;50.924;11.600;2023-10-19T01:12:27;9.00;99.90
26954;DHT22;14508;50.924;11.600;2023-10-19T01:15:08;9.00;99.90
26954;DHT22;14508;50.924;11.600;2023-10-19T01:17:41;9.00;99.90
26954;DHT22;14508;50.924;11.600;2023-10-19T01:20:14;9.10;99.90
26954;DHT22;14508;50.924;11.600;2023-10-19T01:22:52;9.10;99.90
26954;DHT22;14508;50.924;11.600;2023-10-19T01:25:48;9.10;99.90
26954;DHT22;14508;50.924;11.600;2023-10-19T01:28:28;9.10;99.90
26954;DHT22;14508;50.924;11.600;2023-10-19T01:31:10;9.00;99.90
26954;DHT22;14508;50.924;11.600;2023-10-19T01:33:43;9.00;99.90
26954;DHT22;14508;50.924;11.600;2023-10-19T01:36:12;9.00;99.90
26954;DHT22;14508;50.924;11.600;2023-10-19T01:38:45;9.00;99.90
26954;DHT22;14508;50.924;11.600;2023-10-19T01:41:14;9.00;99.90
26954;DHT22;14508;50.924;11.600;2023-10-19T01:43:46;9.00;99.90
26954;DHT22;14508;50.924;11.600;2023-10-19T01:46:21;9.10;99.90
26954;DHT22;14508;50.924;11.600;2023-10-19T01:48:51;9.10;99.90
26954;DHT22;14508;50.924;11.600;2023-10-19T01:51:23;9.10;99.90
26954;DHT22;14508;50.924;11.600;2023-10-19T01:53:52;9.10;99.90
26954;DHT22;14508;50.924;11.600;2023-10-19T01:56:23;9.10;99.90
26954;DHT22;14508;50.924;11.600;2023-10-19T01:58:51;9.10;99.90
26954;DHT22;14508;50.924;11.600;2023-10-19T02:01:20;9.00;99.90
26954;DHT22;14508;50.924;11.600;2023-10-19T02:03:50;9.00;99.90
26954;DHT22;14508;50.924;11.600;2023-10-19T02:06:25;9.00;99.90
26954;DHT22;14508;50.924;11.600;2023-10-19T02:09:00;9.00;99.90
26954;DHT22;14508;50.924;11.600;2023-10-19T02:11:36;9.00;99.90
26954;DHT22;14508;50.924;11.600;2023-10-19T02:14:05;9.00;99.90
26954;DHT22;14508;50.924;11.600;2023-10-19T02:16:41;9.10;99.90
26954;DHT22;14508;50.924;11.600;2023-10-19T02:19:10;9.10;99.90
26954;DHT22;14508;50.924;11.600;2023-10-19T02:21:38;9.10;99.90
26954;DHT22;14508;50.924;11.600;2023-10-19T02:24:09;9.10;99.90
26954;DHT22;14508;50.924;11.600;2023-10-19T02:26:37;9.10;99.90
26954;DHT22;14508;50.924;11.600;2023-10-19T02:29:07;9.10;99.90
26954;DHT22;14508;50.924;11.600;2023-10-19T02:31:35;9.00;99.90
26954;DHT22;14508;50.924;11.600;2023-10-19T02:34:04;9.10;99.90
26954;DHT22;14508;50.924;11.600;2023-10-19T02:36:32;9.10;99.90
26954;DHT22;14508;50.924;11.600;2023-10-19T02:39:02;9.10;99.90
26954;DHT22;14508;50.924;11.600;2023-10-19T02:41:36;9.10;99.90
26954;DHT22;14508;50.924;11.600;2023-10-19T02:44:08;9.20;99.90
26954;DHT22;14508;50.924;11.600;2023-10-19T02:46:37;9.20;99.90
26954;DHT22;14508;50.924;11.600;2023-10-19T02:49:11;9.20;99.90
26954;DHT22;14508;50.924;11.600;2023-10-19T02:51:39;9.20;99.90
26954;DHT22;14508;50.924;11.600;2023-10-19T02:54:08;9.20;99.90
26954;DHT22;14508;50.924;11.600;2023-10-19T02:56:37;9.20;99.90
26954;DHT22;14508;50.924;11.600;2023-10-19T02:59:06;9.20;99.90
26954;DHT22;14508;50.924;11.600;2023-10-19T03:01:33;9.20;99.90
26954;DHT22;14508;50.924;11.600;2023-10-19T03:04:02;9.20;99.90
26954;DHT22;14508;50.924;11.600;2023-10-19T03:06:31;9.20;99.90
26954;DHT22;14508;50.924;11.600;2023-10-19T03:09:04;9.30;99.90
26954;DHT22;14508;50.924;11.600;2023-10-19T03:11:42;9.30;99.90
26954;DHT22;14508;50.924;11.600;2023-10-19T03:14:11;9.30;99.90
26954;DHT22;14508;50.924;11.600;2023-10-19T03:16:38;9.30;99.90
26954;DHT22;14508;50.924;11.600;2023-10-19T03:19:09;9.30;99.90
26954;DHT22;14508;50.924;11.600;2023-10-19T03:21:36;9.30;99.90
26954;DHT22;14508;50.924;11.600;2023-10-19T03:24:10;9.40;99.90
26954;DHT22;14508;50.924;11.600;2023-10-19T03:26:41;9.40;99.90
26954;DHT22;14508;50.924;11.600;2023-10-19T03:29:15;9.40;99.90
26954;DHT22;14508;50.924;11.600;2023-10-19T03:31:45;9.40;99.90
26954;DHT22;14508;50.924;11.600;2023-10-19T03:34:17;9.40;99.90
26954;DHT22;14508;50.924;11.600;2023-10-19T03:36:45;9.40;99.90
26954;DHT22;14508;50.924;11.600;2023-10-19T03:39:13;9.40;99.90
26954;DHT22;14508;50.924;11.600;2023-10-19T03:41:45;9.40;99.90
26954;DHT22;14508;50.924;11.600;2023-10-19T03:44:16;9.40;99.90
26954;DHT22;14508;50.924;11.600;2023-10-19T03:46:46;9.50;99.90
26954;DHT22;14508;50.924;11.600;2023-10-19T03:49:22;9.50;99.90
26954;DHT22;14508;50.924;11.600;2023-10-19T03:51:53;9.50;99.90
26954;DHT22;14508;50.924;11.600;2023-10-19T03:54:29;9.50;99.90
26954;DHT22;14508;50.924;11.600;2023-10-19T03:57:01;9.60;99.90
26954;DHT22;14508;50.924;11.600;2023-10-19T03:59:33;9.60;99.90
26954;DHT22;14508;50.924;11.600;2023-10-19T04:02:01;9.60;99.90
26954;DHT22;14508;50.924;11.600;2023-10-19T04:04:36;9.60;99.90
26954;DHT22;14508;50.924;11.600;2023-10-19T04:07:06;9.60;99.90
26954;DHT22;14508;50.924;11.600;2023-10-19T04:09:43;9.60;99.90
26954;DHT22;14508;50.924;11.600;2023-10-19T04:12:26;9.60;99.90
26954;DHT22;14508;50.924;11.600;2023-10-19T04:14:56;9.60;99.90
26954;DHT22;14508;50.924;11.600;2023-10-19T04:17:24;9.60;99.90
26954;DHT22;14508;50.924;11.600;2023-10-19T04:19:52;9.60;99.90
26954;DHT22;14508;50.924;11.600;2023-10-19T04:22:22;9.60;99.90
26954;DHT22;14508;50.924;11.600;2023-10-19T04:24:50;9.60;99.90
26954;DHT22;14508;50.924;11.600;2023-10-19T04:27:18;9.60;99.90
26954;DHT22;14508;50.924;11.600;2023-10-19T04:29:49;9.60;99.90
26954;DHT22;14508;50.924;11.600;2023-10-19T04:32:18;9.50;99.90
26954;DHT22;14508;50.924;11.600;2023-10-19T04:34:52;9.50;99.90
26954;DHT22;14508;50.924;11.600;2023-10-19T04:37:20;9.40;99.90
26954;DHT22;14508;50.924;11.600;2023-10-19T04:39:51;9.50;99.90
26954;DHT22;14508;50.924;11.600;2023-10-19T04:42:18;9.50;99.90
26954;DHT22;14508;50.924;11.600;2023-10-19T04:44:51;9.50;99.90
26954;DHT22;14508;50.924;11.600;2023-10-19T04:47:19;9.50;99.90
26954;DHT22;14508;50.924;11.600;2023-10-19T04:49:52;9.50;99.90
26954;DHT22;14508;50.924;11.600;2023-10-19T04:52:20;9.50;99.90
26954;DHT22;14508;50.924;11.600;2023-10-19T04:54:48;9.60;99.90
26954;DHT22;14508;50.924;11.600;2023-10-19T04:57:16;9.60;99.90
26954;DHT22;14508;50.924;11.600;2023-10-19T04:59:45;9.70;99.90
26954;DHT22;14508;50.924;11.600;2023-10-19T05:02:14;9.70;99.90
26954;DHT22;14508;50.924;11.600;2023-10-19T05:04:43;9.80;99.90
26954;DHT22;14508;50.924;11.600;2023-10-19T05:07:12;9.80;99.90
26954;DHT22;14508;50.924;11.600;2023-10-19T05:09:44;9.90;99.90
26954;DHT22;14508;50.924;11.600;2023-10-19T05:12:13;9.90;99.90
26954;DHT22;14508;50.924;11.600;2023-10-19T05:14:42;10.00;99.90
26954;DHT22;14508;50.924;11.600;2023-10-19T05:17:11;10.00;99.90
26954;DHT22;14508;50.924;11.600;2023-10-19T05:19:40;10.00;99.90
26954;DHT22;14508;50.924;11.600;2023-10-19T05:22:09;10.00;99.90
26954;DHT22;14508;50.924;11.600;2023-10-19T05:24:37;10.10;99.90
26954;DHT22;14508;50.924;11.600;2023-10-19T05:27:05;10.10;99.90
26954;DHT22;14508;50.924;11.600;2023-10-19T05:29:38;10.10;99.90
26954;DHT22;14508;50.924;11.600;2023-10-19T05:32:06;10.20;99.90
26954;DHT22;14508;50.924;11.600;2023-10-19T05:34:36;10.20;99.90
26954;DHT22;14508;50.924;11.600;2023-10-19T05:37:06;10.20;99.90
26954;DHT22;14508;50.924;11.600;2023-10-19T05:39:36;10.30;99.90
26954;DHT22;14508;50.924;11.600;2023-10-19T05:42:04;10.30;99.90
26954;DHT22;14508;50.924;11.600;2023-10-19T05:44:32;10.30;99.90
26954;DHT22;14508;50.924;11.600;2023-10-19T05:47:01;10.30;99.90
26954;DHT22;14508;50.924;11.600;2023-10-19T05:49:29;10.40;99.90
26954;DHT22;14508;50.924;11.600;2023-10-19T05:51:58;10.40;99.90
26954;DHT22;14508;50.924;11.600;2023-10-19T05:54:27;10.50;99.90
26954;DHT22;14508;50.924;11.600;2023-10-19T05:56:56;10.50;99.90
26954;DHT22;14508;50.924;11.600;2023-10-19T05:59:24;10.50;99.90
26954;DHT22;14508;50.924;11.600;2023-10-19T06:01:53;10.60;99.90
26954;DHT22;14508;50.924;11.600;2023-10-19T06:04:21;10.60;99.90
26954;DHT22;14508;50.924;11.600;2023-10-19T06:06:50;10.60;99.90
26954;DHT22;14508;50.924;11.600;2023-10-19T06:09:18;10.60;99.90
26954;DHT22;14508;50.924;11.600;2023-10-19T06:11:49;10.60;99.90
26954;DHT22;14508;50.924;11.600;2023-10-19T06:14:17;10.70;99.90
26954;DHT22;14508;50.924;11.600;2023-10-19T06:16:46;10.70;99.90
26954;DHT22;14508;50.924;11.600;2023-10-19T06:19:16;10.80;99.90
26954;DHT22;14508;50.924;11.600;2023-10-19T06:21:44;10.70;99.90
26954;DHT22;14508;50.924;11.600;2023-10-19T06:24:12;10.80;99.90
26954;DHT22;14508;50.924;11.600;2023-10-19T06:26:42;10.80;99.90
26954;DHT22;14508;50.924;11.600;2023-10-19T06:29:11;10.80;99.90
26954;DHT22;14508;50.924;11.600;2023-10-19T06:31:39;10.80;99.90
26954;DHT22;14508;50.924;11.600;2023-10-19T06:34:08;10.90;99.90
26954;DHT22;14508;50.924;11.600;2023-10-19T06:36:37;10.90;99.90
26954;DHT22;14508;50.924;11.600;2023-10-19T06:39:05;10.90;99.90
26954;DHT22;14508;50.924;11.600;2023-10-19T06:41:35;11.00;99.90
26954;DHT22;14508;50.924;11.600;2023-10-19T06:44:03;11.00;99.90
26954;DHT22;14508;50.924;11.600;2023-10-19T06:46:32;11.00;99.90
26954;DHT22;14508;50.924;11.600;2023-10-19T06:49:03;11.00;99.90
26954;DHT22;14508;50.924;11.600;2023-10-19T06:51:31;11.10;99.90
26954;DHT22;14508;50.924;11.600;2023-10-19T06:54:00;11.10;99.90
26954;DHT22;14508;50.924;11.600;2023-10-19T06:56:28;11.10;99.90
26954;DHT22;14508;50.924;11.600;2023-10-19T06:58:57;11.20;99.90
26954;DHT22;14508;50.924;11.600;2023-10-19T07:01:25;11.20;99.90
26954;DHT22;14508;50.924;11.600;2023-10-19T07:03:57;11.30;99.90
26954;DHT22;14508;50.924;11.600;2023-10-19T07:06:25;11.30;99.90
26954;DHT22;14508;50.924;11.600;2023-10-19T07:08:54;11.30;99.90
26954;DHT22;14508;50.924;11.600;2023-10-19T07:11:23;11.40;99.90
26954;DHT22;14508;50.924;11.600;2023-10-19T07:13:52;11.40;99.90
26954;DHT22;14508;50.924;11.600;2023-10-19T07:16:20;11.40;99.90
26954;DHT22;14508;50.924;11.600;2023-10-19T07:18:49;11.40;99.90
26954;DHT22;14508;50.924;11.600;2023-10-19T07:21:19;11.40;99.90
26954;DHT22;14508;50.924;11.600;2023-10-19T07:23:47;11.50;99.90
26954;DHT22;14508;50.924;11.600;2023-10-19T07:26:19;11.50;99.90
26954;DHT22;14508;50.924;11.600;2023-10-19T07:28:48;11.50;99.90
26954;DHT22;14508;50.924;11.600;2023-10-19T07:31:17;11.50;99.90
26954;DHT22;14508;50.924;11.600;2023-10-19T07:33:45;11.50;99.90
26954;DHT22;14508;50.924;11.600;2023-10-19T07:36:14;11.50;99.90
26954;DHT22;14508;50.924;11.600;2023-10-19T07:38:43;11.50;99.90
26954;DHT22;14508;50.924;11.600;2023-10-19T07:41:13;11.60;99.90
26954;DHT22;14508;50.924;11.600;2023-10-19T07:43:41;11.60;99.90
26954;DHT22;14508;50.924;11.600;2023-10-19T07:46:10;11.70;99.90
26954;DHT22;14508;50.924;11.600;2023-10-19T07:48:39;11.90;99.90
26954;DHT22;14508;50.924;11.600;2023-10-19T07:51:08;12.00;99.90
26954;DHT22;14508;50.924;11.600;2023-10-19T07:53:38;12.20;99.90
26954;DHT22;14508;50.924;11.600;2023-10-19T07:56:08;12.40;99.90
26954;DHT22;14508;50.924;11.600;2023-10-19T07:58:36;12.60;99.90
26954;DHT22;14508;50.924;11.600;2023-10-19T08:01:06;12.70;99.90
26954;DHT22;14508;50.924;11.600;2023-10-19T08:03:34;12.80;99.90
26954;DHT22;14508;50.924;11.600;2023-10-19T08:06:03;12.90;99.90
26954;DHT22;14508;50.924;11.600;2023-10-19T08:08:33;12.90;99.90
26954;DHT22;14508;50.924;11.600;2023-10-19T08:11:02;12.90;99.90
26954;DHT22;14508;50.924;11.600;2023-10-19T08:13:31;13.00;99.90
26954;DHT22;14508;50.924;11.600;2023-10-19T08:16:00;13.00;99.90
26954;DHT22;14508;50.924;11.600;2023-10-19T08:18:28;13.10;99.90
26954;DHT22;14508;50.924;11.600;2023-10-19T08:20:57;13.10;99.90
26954;DHT22;14508;50.924;11.600;2023-10-19T08:23:25;13.10;99.90
26954;DHT22;14508;50.924;11.600;2023-10-19T08:25:54;13.10;99.90
26954;DHT22;14508;50.924;11.600;2023-10-19T08:28:23;13.10;99.90
26954;DHT22;14508;50.924;11.600;2023-10-19T08:30:53;13.20;99.90
26954;DHT22;14508;50.924;11.600;2023-10-19T08:33:30;13.30;99.90
26954;DHT22;14508;50.924;11.600;2023-10-19T08:36:01;13.40;99.90
26954;DHT22;14508;50.924;11.600;2023-10-19T08:38:29;13.50;99.90
26954;DHT22;14508;50.924;11.600;2023-10-19T08:40:57;13.50;99.90
26954;DHT22;14508;50.924;11.600;2023-10-19T08:43:25;13.70;99.90
26954;DHT22;14508;50.924;11.600;2023-10-19T08:45:56;13.80;99.90
26954;DHT22;14508;50.924;11.600;2023-10-19T08:48:26;13.90;99.90
26954;DHT22;14508;50.924;11.600;2023-10-19T08:50:56;13.90;99.90
26954;DHT22;14508;50.924;11.600;2023-10-19T08:53:26;13.90;99.90
26954;DHT22;14508;50.924;11.600;2023-10-19T08:55:55;13.80;99.90
26954;DHT22;14508;50.924;11.600;2023-10-19T08:58:24;13.90;99.90
26954;DHT22;14508;50.924;11.600;2023-10-19T09:00:55;13.90;99.90
26954;DHT22;14508;50.924;11.600;2023-10-19T09:03:24;14.00;99.90
26954;DHT22;14508;50.924;11.600;2023-10-19T09:05:54;14.00;99.90
26954;DHT22;14508;50.924;11.600;2023-10-19T09:08:23;14.10;99.90
26954;DHT22;14508;50.924;11.600;2023-10-19T09:10:52;14.10;99.90
26954;DHT22;14508;50.924;11.600;2023-10-19T09:13:22;14.20;99.90
26954;DHT22;14508;50.924;11.600;2023-10-19T09:15:52;14.30;99.90
26954;DHT22;14508;50.924;11.600;2023-10-19T09:18:25;14.40;99.90
26954;DHT22;14508;50.924;11.600;2023-10-19T09:20:56;14.50;99.90
26954;DHT22;14508;50.924;11.600;2023-10-19T09:23:35;14.70;99.90
26954;DHT22;14508;50.924;11.600;2023-10-19T09:26:05;14.70;99.90
26954;DHT22;14508;50.924;11.600;2023-10-19T09:28:35;14.70;99.90
26954;DHT22;14508;50.924;11.600;2023-10-19T09:31:05;14.80;99.90
26954;DHT22;14508;50.924;11.600;2023-10-19T09:33:40;14.80;99.90
26954;DHT22;14508;50.924;11.600;2023-10-19T09:36:11;14.90;99.90
26954;DHT22;14508;50.924;11.600;2023-10-19T09:38:44;15.00;99.90
26954;DHT22;14508;50.924;11.600;2023-10-19T09:41:17;15.00;99.90
26954;DHT22;14508;50.924;11.600;2023-10-19T09:43:48;14.90;99.90
26954;DHT22;14508;50.924;11.600;2023-10-19T09:46:21;14.80;99.90
26954;DHT22;14508;50.924;11.600;2023-10-19T09:48:51;14.70;99.90
26954;DHT22;14508;50.924;11.600;2023-10-19T09:51:19;14.70;99.90
26954;DHT22;14508;50.924;11.600;2023-10-19T09:53:51;14.70;99.90
26954;DHT22;14508;50.924;11.600;2023-10-19T09:56:26;14.70;99.90
26954;DHT22;14508;50.924;11.600;2023-10-19T09:58:59;14.80;99.90
26954;DHT22;14508;50.924;11.600;2023-10-19T10:02:06;14.80;99.90
26954;DHT22;14508;50.924;11.600;2023-10-19T10:04:37;15.00;99.90
26954;DHT22;14508;50.924;11.600;2023-10-19T10:07:06;15.20;99.90
26954;DHT22;14508;50.924;11.600;2023-10-19T10:09:35;15.30;99.90
26954;DHT22;14508;50.924;11.600;2023-10-19T10:12:17;15.40;99.90
26954;DHT22;14508;50.924;11.600;2023-10-19T10:14:57;15.50;99.90
26954;DHT22;14508;50.924;11.600;2023-10-19T10:17:26;15.50;99.90
26954;DHT22;14508;50.924;11.600;2023-10-19T10:20:29;15.60;99.90
26954;DHT22;14508;50.924;11.600;2023-10-19T10:23:16;15.70;99.90
26954;DHT22;14508;50.924;11.600;2023-10-19T10:25:45;15.80;99.90
26954;DHT22;14508;50.924;11.600;2023-10-19T10:28:16;15.90;99.90
26954;DHT22;14508;50.924;11.600;2023-10-19T10:31:07;16.00;99.90
26954;DHT22;14508;50.924;11.600;2023-10-19T10:33:39;16.00;99.90
26954;DHT22;14508;50.924;11.600;2023-10-19T10:36:09;16.10;99.90
26954;DHT22;14508;50.924;11.600;2023-10-19T10:38:38;16.10;99.90
26954;DHT22;14508;50.924;11.600;2023-10-19T10:41:07;16.20;99.90
26954;DHT22;14508;50.924;11.600;2023-10-19T10:43:51;16.30;99.90
26954;DHT22;14508;50.924;11.600;2023-10-19T10:46:24;16.40;99.90
26954;DHT22;14508;50.924;11.600;2023-10-19T10:48:53;16.50;99.90
26954;DHT22;14508;50.924;11.600;2023-10-19T10:51:23;16.50;99.90
26954;DHT22;14508;50.924;11.600;2023-10-19T10:53:53;16.50;99.90
26954;DHT22;14508;50.924;11.600;2023-10-19T10:56:22;16.50;99.90
26954;DHT22;14508;50.924;11.600;2023-10-19T10:58:51;16.50;99.90
26954;DHT22;14508;50.924;11.600;2023-10-19T11:01:29;16.50;99.90
26954;DHT22;14508;50.924;11.600;2023-10-19T11:04:06;16.60;99.90
26954;DHT22;14508;50.924;11.600;2023-10-19T11:06:47;16.60;99.90
26954;DHT22;14508;50.924;11.600;2023-10-19T11:09:16;16.80;99.90
26954;DHT22;14508;50.924;11.600;2023-10-19T11:11:46;16.90;99.90
26954;DHT22;14508;50.924;11.600;2023-10-19T11:14:16;17.00;99.90
26954;DHT22;14508;50.924;11.600;2023-10-19T11:16:44;17.20;99.90
26954;DHT22;14508;50.924;11.600;2023-10-19T11:19:13;17.30;99.90
26954;DHT22;14508;50.924;11.600;2023-10-19T11:21:53;17.40;99.90
26954;DHT22;14508;50.924;11.600;2023-10-19T11:24:25;17.50;99.90
26954;DHT22;14508;50.924;11.600;2023-10-19T11:26:55;17.50;99.90
26954;DHT22;14508;50.924;11.600;2023-10-19T11:29:23;17.50;99.90
26954;DHT22;14508;50.924;11.600;2023-10-19T11:31:58;17.50;99.90
26954;DHT22;14508;50.924;11.600;2023-10-19T11:34:28;17.60;99.90
26954;DHT22;14508;50.924;11.600;2023-10-19T11:36:59;17.70;99.90
26954;DHT22;14508;50.924;11.600;2023-10-19T11:39:27;17.90;99.90
26954;DHT22;14508;50.924;11.600;2023-10-19T11:41:56;18.00;99.90
26954;DHT22;14508;50.924;11.600;2023-10-19T11:44:24;18.10;99.90
26954;DHT22;14508;50.924;11.600;2023-10-19T11:46:52;18.10;99.90
26954;DHT22;14508;50.924;11.600;2023-10-19T11:49:20;18.10;99.90
26954;DHT22;14508;50.924;11.600;2023-10-19T11:51:52;18.10;99.90
26954;DHT22;14508;50.924;11.600;2023-10-19T11:54:22;18.10;99.90
26954;DHT22;14508;50.924;11.600;2023-10-19T11:56:50;18.10;99.90
26954;DHT22;14508;50.924;11.600;2023-10-19T11:59:20;18.20;99.90
26954;DHT22;14508;50.924;11.600;2023-10-19T12:01:48;18.20;99.90
26954;DHT22;14508;50.924;11.600;2023-10-19T12:04:16;18.30;99.90
26954;DHT22;14508;50.924;11.600;2023-10-19T12:06:44;18.30;99.90
26954;DHT22;14508;50.924;11.600;2023-10-19T12:09:13;18.30;99.90
26954;DHT22;14508;50.924;11.600;2023-10-19T12:11:50;18.30;99.90
26954;DHT22;14508;50.924;11.600;2023-10-19T12:14:20;18.40;99.90
26954;DHT22;14508;50.924;11.600;2023-10-19T12:16:48;18.40;99.90
26954;DHT22;14508;50.924;11.600;2023-10-19T12:19:16;18.40;99.90
26954;DHT22;14508;50.924;11.600;2023-10-19T12:21:45;18.40;99.90
26954;DHT22;14508;50.924;11.600;2023-10-19T12:24:16;18.30;99.90
26954;DHT22;14508;50.924;11.600;2023-10-19T12:26:46;18.30;99.90
26954;DHT22;14508;50.924;11.600;2023-10-19T12:29:14;18.30;99.90
26954;DHT22;14508;50.924;11.600;2023-10-19T12:31:44;18.30;99.90
26954;DHT22;14508;50.924;11.600;2023-10-19T12:34:13;18.30;99.90
26954;DHT22;14508;50.924;11.600;2023-10-19T12:36:43;18.30;99.90
26954;DHT22;14508;50.924;11.600;2023-10-19T12:39:13;18.30;99.90
26954;DHT22;14508;50.924;11.600;2023-10-19T12:42:04;18.20;99.90
26954;DHT22;14508;50.924;11.600;2023-10-19T12:44:34;18.20;99.90
26954;DHT22;14508;50.924;11.600;2023-10-19T12:47:06;18.20;99.90
26954;DHT22;14508;50.924;11.600;2023-10-19T12:49:37;18.20;99.90
26954;DHT22;14508;50.924;11.600;2023-10-19T12:52:06;18.10;99.90
26954;DHT22;14508;50.924;11.600;2023-10-19T12:54:35;18.10;99.90
26954;DHT22;14508;50.924;11.600;2023-10-19T12:57:06;18.20;99.90
26954;DHT22;14508;50.924;11.600;2023-10-19T12:59:35;18.20;99.90
26954;DHT22;14508;50.924;11.600;2023-10-19T13:02:04;18.20;99.90
26954;DHT22;14508;50.924;11.600;2023-10-19T13:04:35;18.20;99.90
26954;DHT22;14508;50.924;11.600;2023-10-19T13:07:04;18.20;99.90
26954;DHT22;14508;50.924;11.600;2023-10-19T13:09:32;18.20;99.90
26954;DHT22;14508;50.924;11.600;2023-10-19T13:12:03;18.20;99.90
26954;DHT22;14508;50.924;11.600;2023-10-19T13:14:36;18.20;99.90
26954;DHT22;14508;50.924;11.600;2023-10-19T13:17:04;18.20;99.90
26954;DHT22;14508;50.924;11.600;2023-10-19T13:19:32;18.10;99.90
26954;DHT22;14508;50.924;11.600;2023-10-19T13:22:03;18.00;99.90
26954;DHT22;14508;50.924;11.600;2023-10-19T13:24:34;18.00;99.90
26954;DHT22;14508;50.924;11.600;2023-10-19T13:27:08;17.90;99.90
26954;DHT22;14508;50.924;11.600;2023-10-19T13:29:37;17.90;99.90
26954;DHT22;14508;50.924;11.600;2023-10-19T13:32:09;17.90;99.90
26954;DHT22;14508;50.924;11.600;2023-10-19T13:34:37;17.90;99.90
26954;DHT22;14508;50.924;11.600;2023-10-19T13:37:07;17.80;99.90
26954;DHT22;14508;50.924;11.600;2023-10-19T13:39:36;17.80;99.90
26954;DHT22;14508;50.924;11.600;2023-10-19T13:42:06;17.70;99.90
26954;DHT22;14508;50.924;11.600;2023-10-19T13:44:37;17.70;99.90
26954;DHT22;14508;50.924;11.600;2023-10-19T13:47:06;17.70;99.90
26954;DHT22;14508;50.924;11.600;2023-10-19T13:49:36;17.50;99.90
26954;DHT22;14508;50.924;11.600;2023-10-19T13:52:04;17.50;99.90
26954;DHT22;14508;50.924;11.600;2023-10-19T13:54:32;17.50;99.90
26954;DHT22;14508;50.924;11.600;2023-10-19T13:57:00;17.50;99.90
26954;DHT22;14508;50.924;11.600;2023-10-19T13:59:29;17.50;99.90
26954;DHT22;14508;50.924;11.600;2023-10-19T14:01:58;17.70;99.90
26954;DHT22;14508;50.924;11.600;2023-10-19T14:04:27;17.80;99.90
26954;DHT22;14508;50.924;11.600;2023-10-19T14:06:55;17.80;99.90
26954;DHT22;14508;50.924;11.600;2023-10-19T14:09:23;17.80;99.90
26954;DHT22;14508;50.924;11.600;2023-10-19T14:11:53;17.70;99.90
26954;DHT22;14508;50.924;11.600;2023-10-19T14:14:21;17.70;99.90
26954;DHT22;14508;50.924;11.600;2023-10-19T14:16:49;17.70;99.90
26954;DHT22;14508;50.924;11.600;2023-10-19T14:19:19;17.70;99.90
26954;DHT22;14508;50.924;11.600;2023-10-19T14:21:47;17.70;99.90
26954;DHT22;14508;50.924;11.600;2023-10-19T14:24:15;17.60;99.90
26954;DHT22;14508;50.924;11.600;2023-10-19T14:26:44;17.50;99.90
26954;DHT22;14508;50.924;11.600;2023-10-19T14:29:13;17.40;99.90
26954;DHT22;14508;50.924;11.600;2023-10-19T14:31:41;17.40;99.90
26954;DHT22;14508;50.924;11.600;2023-10-19T14:34:10;17.30;99.90
26954;DHT22;14508;50.924;11.600;2023-10-19T14:36:40;17.20;99.90
26954;DHT22;14508;50.924;11.600;2023-10-19T14:39:08;17.10;99.90
26954;DHT22;14508;50.924;11.600;2023-10-19T14:41:36;17.00;99.90
26954;DHT22;14508;50.924;11.600;2023-10-19T14:44:05;16.90;99.90
26954;DHT22;14508;50.924;11.600;2023-10-19T14:46:33;16.80;99.90
26954;DHT22;14508;50.924;11.600;2023-10-19T14:49:01;16.70;99.90
26954;DHT22;14508;50.924;11.600;2023-10-19T14:51:30;16.60;99.90
26954;DHT22;14508;50.924;11.600;2023-10-19T14:54:00;16.50;99.90
26954;DHT22;14508;50.924;11.600;2023-10-19T14:56:29;16.40;99.90
26954;DHT22;14508;50.924;11.600;2023-10-19T14:58:58;16.40;99.90
26954;DHT22;14508;50.924;11.600;2023-10-19T15:01:26;16.30;99.90
26954;DHT22;14508;50.924;11.600;2023-10-19T15:03:54;16.30;99.90
26954;DHT22;14508;50.924;11.600;2023-10-19T15:06:22;16.20;99.90
26954;DHT22;14508;50.924;11.600;2023-10-19T15:08:50;16.10;99.90
26954;DHT22;14508;50.924;11.600;2023-10-19T15:11:20;16.10;99.90
26954;DHT22;14508;50.924;11.600;2023-10-19T15:13:49;16.00;99.90
26954;DHT22;14508;50.924;11.600;2023-10-19T15:16:17;16.00;99.90
26954;DHT22;14508;50.924;11.600;2023-10-19T15:18:46;16.00;99.90
26954;DHT22;14508;50.924;11.600;2023-10-19T15:21:15;15.90;99.90
26954;DHT22;14508;50.924;11.600;2023-10-19T15:23:44;15.90;99.90
26954;DHT22;14508;50.924;11.600;2023-10-19T15:26:17;15.90;99.90
26954;DHT22;14508;50.924;11.600;2023-10-19T15:28:47;15.80;99.90
26954;DHT22;14508;50.924;11.600;2023-10-19T15:31:15;15.80;99.90
26954;DHT22;14508;50.924;11.600;2023-10-19T15:33:44;15.80;99.90
26954;DHT22;14508;50.924;11.600;2023-10-19T15:36:13;15.70;99.90
26954;DHT22;14508;50.924;11.600;2023-10-19T15:38:41;15.70;99.90
26954;DHT22;14508;50.924;11.600;2023-10-19T15:41:09;15.60;99.90